sensor_id;sensor_type;location;lat;lon;timestamp;P1;durP1;ratioP1;P2;durP2;ratioP2
67272;SDS011;54190;49.770;9.250;2023-02-28T00:00:35;4.63;;;3.50;;
67272;SDS011;54190;49.770;9.250;2023-02-28T00:03:01;4.70;;;3.10;;
67272;SDS011;54190;49.770;9.250;2023-02-28T00:05:27;4.67;;;2.97;;
67272;SDS011;54190;49.770;9.250;2023-02-28T00:07:53;2.97;;;2.53;;
67272;SDS011;54190;49.770;9.250;2023-02-28T00:10:20;5.17;;;2.87;;
67272;SDS011;54190;49.770;9.250;2023-02-28T00:12:48;4.83;;;3.33;;
67272;SDS011;54190;49.770;9.250;2023-02-28T00:15:15;5.23;;;3.30;;
67272;SDS011;54190;49.770;9.250;2023-02-28T00:17:41;3.73;;;3.03;;
67272;SDS011;54190;49.770;9.250;2023-02-28T00:20:08;4.37;;;3.20;;
67272;SDS011;54190;49.770;9.250;2023-02-28T00:22:47;5.20;;;3.20;;
67272;SDS011;54190;49.770;9.250;2023-02-28T00:25:16;5.60;;;3.17;;
67272;SDS011;54190;49.770;9.250;2023-02-28T00:27:43;4.53;;;2.97;;
67272;SDS011;54190;49.770;9.250;2023-02-28T00:30:11;5.40;;;3.50;;
67272;SDS011;54190;49.770;9.250;2023-02-28T00:32:39;4.93;;;3.57;;
67272;SDS011;54190;49.770;9.250;2023-02-28T00:35:05;4.00;;;3.07;;
67272;SDS011;54190;49.770;9.250;2023-02-28T00:37:32;5.00;;;3.40;;
67272;SDS011;54190;49.770;9.250;2023-02-28T00:39:58;4.27;;;3.60;;
67272;SDS011;54190;49.770;9.250;2023-02-28T00:42:24;4.63;;;3.33;;
67272;SDS011;54190;49.770;9.250;2023-02-28T00:44:49;4.67;;;3.57;;
67272;SDS011;54190;49.770;9.250;2023-02-28T00:47:15;5.07;;;3.90;;
67272;SDS011;54190;49.770;9.250;2023-02-28T00:49:42;5.10;;;3.60;;
67272;SDS011;54190;49.770;9.250;2023-02-28T00:52:08;4.40;;;3.50;;
67272;SDS011;54190;49.770;9.250;2023-02-28T00:54:34;5.20;;;3.37;;
67272;SDS011;54190;49.770;9.250;2023-02-28T00:57:00;4.63;;;3.83;;
67272;SDS011;54190;49.770;9.250;2023-02-28T00:59:26;5.90;;;4.10;;
67272;SDS011;54190;49.770;9.250;2023-02-28T01:01:51;5.53;;;3.40;;
67272;SDS011;54190;49.770;9.250;2023-02-28T01:04:17;4.83;;;3.63;;
67272;SDS011;54190;49.770;9.250;2023-02-28T01:06:42;5.20;;;3.50;;
67272;SDS011;54190;49.770;9.250;2023-02-28T01:09:09;5.80;;;3.90;;
67272;SDS011;54190;49.770;9.250;2023-02-28T01:11:35;4.27;;;3.50;;
67272;SDS011;54190;49.770;9.250;2023-02-28T01:14:02;6.77;;;4.20;;
67272;SDS011;54190;49.770;9.250;2023-02-28T01:16:29;6.13;;;3.43;;
67272;SDS011;54190;49.770;9.250;2023-02-28T01:18:55;5.27;;;3.87;;
67272;SDS011;54190;49.770;9.250;2023-02-28T01:21:21;4.70;;;3.43;;
67272;SDS011;54190;49.770;9.250;2023-02-28T01:23:47;4.80;;;3.60;;
67272;SDS011;54190;49.770;9.250;2023-02-28T01:26:14;5.20;;;3.50;;
67272;SDS011;54190;49.770;9.250;2023-02-28T01:28:44;5.77;;;3.77;;
67272;SDS011;54190;49.770;9.250;2023-02-28T01:31:10;4.77;;;3.70;;
67272;SDS011;54190;49.770;9.250;2023-02-28T01:33:37;5.40;;;4.00;;
67272;SDS011;54190;49.770;9.250;2023-02-28T01:36:04;5.60;;;3.70;;
67272;SDS011;54190;49.770;9.250;2023-02-28T01:38:31;5.63;;;4.03;;
67272;SDS011;54190;49.770;9.250;2023-02-28T01:40:57;7.43;;;4.03;;
67272;SDS011;54190;49.770;9.250;2023-02-28T01:43:25;4.90;;;3.50;;
67272;SDS011;54190;49.770;9.250;2023-02-28T01:46:14;6.43;;;4.03;;
67272;SDS011;54190;49.770;9.250;2023-02-28T01:48:45;4.70;;;3.90;;
67272;SDS011;54190;49.770;9.250;2023-02-28T01:54:12;4.73;;;3.87;;
67272;SDS011;54190;49.770;9.250;2023-02-28T01:57:04;5.60;;;3.90;;
67272;SDS011;54190;49.770;9.250;2023-02-28T01:59:41;4.60;;;3.73;;
67272;SDS011;54190;49.770;9.250;2023-02-28T02:02:11;5.50;;;3.93;;
67272;SDS011;54190;49.770;9.250;2023-02-28T02:04:42;5.00;;;4.10;;
67272;SDS011;54190;49.770;9.250;2023-02-28T02:07:29;4.77;;;3.73;;
67272;SDS011;54190;49.770;9.250;2023-02-28T02:10:03;4.93;;;3.67;;
67272;SDS011;54190;49.770;9.250;2023-02-28T02:12:51;5.70;;;4.67;;
67272;SDS011;54190;49.770;9.250;2023-02-28T02:18:25;6.10;;;3.80;;
67272;SDS011;54190;49.770;9.250;2023-02-28T02:21:40;7.13;;;3.70;;
67272;SDS011;54190;49.770;9.250;2023-02-28T02:32:28;3.97;;;2.73;;
67272;SDS011;54190;49.770;9.250;2023-02-28T02:35:21;4.90;;;3.50;;
67272;SDS011;54190;49.770;9.250;2023-02-28T02:37:57;4.00;;;3.60;;
67272;SDS011;54190;49.770;9.250;2023-02-28T02:40:30;5.97;;;3.33;;
67272;SDS011;54190;49.770;9.250;2023-02-28T02:43:07;5.03;;;3.73;;
67272;SDS011;54190;49.770;9.250;2023-02-28T02:45:52;6.23;;;3.50;;
67272;SDS011;54190;49.770;9.250;2023-02-28T02:48:24;9.70;;;3.47;;
67272;SDS011;54190;49.770;9.250;2023-02-28T02:50:54;5.53;;;3.90;;
67272;SDS011;54190;49.770;9.250;2023-02-28T02:53:24;4.27;;;3.50;;
67272;SDS011;54190;49.770;9.250;2023-02-28T02:55:59;4.43;;;3.70;;
67272;SDS011;54190;49.770;9.250;2023-02-28T02:58:31;4.97;;;3.93;;
67272;SDS011;54190;49.770;9.250;2023-02-28T03:01:01;4.50;;;3.30;;
67272;SDS011;54190;49.770;9.250;2023-02-28T03:03:30;3.73;;;3.10;;
67272;SDS011;54190;49.770;9.250;2023-02-28T03:05:59;5.10;;;3.87;;
67272;SDS011;54190;49.770;9.250;2023-02-28T03:08:26;5.93;;;3.70;;
67272;SDS011;54190;49.770;9.250;2023-02-28T03:10:57;4.43;;;3.57;;
67272;SDS011;54190;49.770;9.250;2023-02-28T03:13:37;5.40;;;3.67;;
67272;SDS011;54190;49.770;9.250;2023-02-28T03:16:09;5.70;;;3.57;;
67272;SDS011;54190;49.770;9.250;2023-02-28T03:19:02;4.50;;;3.70;;
67272;SDS011;54190;49.770;9.250;2023-02-28T03:22:08;5.60;;;3.70;;
67272;SDS011;54190;49.770;9.250;2023-02-28T03:27:31;4.80;;;3.70;;
67272;SDS011;54190;49.770;9.250;2023-02-28T03:30:23;5.87;;;4.00;;
67272;SDS011;54190;49.770;9.250;2023-02-28T03:35:29;5.90;;;4.93;;
67272;SDS011;54190;49.770;9.250;2023-02-28T03:38:13;4.40;;;3.20;;
67272;SDS011;54190;49.770;9.250;2023-02-28T03:40:46;4.50;;;3.73;;
67272;SDS011;54190;49.770;9.250;2023-02-28T03:43:31;3.90;;;3.13;;
67272;SDS011;54190;49.770;9.250;2023-02-28T03:46:02;4.57;;;3.63;;
67272;SDS011;54190;49.770;9.250;2023-02-28T03:48:37;5.80;;;4.00;;
67272;SDS011;54190;49.770;9.250;2023-02-28T03:51:17;4.63;;;3.63;;
67272;SDS011;54190;49.770;9.250;2023-02-28T03:53:47;5.60;;;4.17;;
67272;SDS011;54190;49.770;9.250;2023-02-28T03:56:19;5.43;;;3.80;;
67272;SDS011;54190;49.770;9.250;2023-02-28T03:59:02;8.40;;;4.47;;
67272;SDS011;54190;49.770;9.250;2023-02-28T04:01:38;4.43;;;3.43;;
67272;SDS011;54190;49.770;9.250;2023-02-28T04:04:06;4.93;;;3.90;;
67272;SDS011;54190;49.770;9.250;2023-02-28T04:06:36;4.97;;;3.57;;
67272;SDS011;54190;49.770;9.250;2023-02-28T04:09:02;6.70;;;4.40;;
67272;SDS011;54190;49.770;9.250;2023-02-28T04:11:33;5.73;;;4.13;;
67272;SDS011;54190;49.770;9.250;2023-02-28T04:14:04;6.43;;;3.83;;
67272;SDS011;54190;49.770;9.250;2023-02-28T04:16:31;8.70;;;4.87;;
67272;SDS011;54190;49.770;9.250;2023-02-28T04:18:58;4.40;;;3.80;;
67272;SDS011;54190;49.770;9.250;2023-02-28T04:21:28;5.40;;;4.50;;
67272;SDS011;54190;49.770;9.250;2023-02-28T04:23:55;4.33;;;3.93;;
67272;SDS011;54190;49.770;9.250;2023-02-28T04:26:23;5.30;;;3.67;;
67272;SDS011;54190;49.770;9.250;2023-02-28T04:28:49;5.40;;;3.90;;
67272;SDS011;54190;49.770;9.250;2023-02-28T04:31:14;6.10;;;4.20;;
67272;SDS011;54190;49.770;9.250;2023-02-28T04:33:40;4.73;;;3.47;;
67272;SDS011;54190;49.770;9.250;2023-02-28T04:36:07;4.40;;;3.63;;
67272;SDS011;54190;49.770;9.250;2023-02-28T04:38:34;7.13;;;4.20;;
67272;SDS011;54190;49.770;9.250;2023-02-28T04:41:01;5.43;;;4.17;;
67272;SDS011;54190;49.770;9.250;2023-02-28T04:43:27;6.23;;;4.80;;
67272;SDS011;54190;49.770;9.250;2023-02-28T04:45:54;7.50;;;4.37;;
67272;SDS011;54190;49.770;9.250;2023-02-28T04:48:23;5.80;;;3.87;;
67272;SDS011;54190;49.770;9.250;2023-02-28T04:50:50;5.83;;;3.80;;
67272;SDS011;54190;49.770;9.250;2023-02-28T04:53:17;6.70;;;4.20;;
67272;SDS011;54190;49.770;9.250;2023-02-28T04:55:43;6.20;;;4.23;;
67272;SDS011;54190;49.770;9.250;2023-02-28T04:58:09;5.33;;;4.03;;
67272;SDS011;54190;49.770;9.250;2023-02-28T05:00:35;4.83;;;3.90;;
67272;SDS011;54190;49.770;9.250;2023-02-28T05:03:00;5.73;;;4.10;;
67272;SDS011;54190;49.770;9.250;2023-02-28T05:05:26;4.47;;;3.50;;
67272;SDS011;54190;49.770;9.250;2023-02-28T05:07:52;5.97;;;4.17;;
67272;SDS011;54190;49.770;9.250;2023-02-28T05:10:18;7.83;;;4.10;;
67272;SDS011;54190;49.770;9.250;2023-02-28T05:12:44;5.47;;;3.93;;
67272;SDS011;54190;49.770;9.250;2023-02-28T05:15:13;5.20;;;4.23;;
67272;SDS011;54190;49.770;9.250;2023-02-28T05:17:40;5.03;;;3.90;;
67272;SDS011;54190;49.770;9.250;2023-02-28T05:20:06;5.07;;;4.03;;
67272;SDS011;54190;49.770;9.250;2023-02-28T05:22:35;8.40;;;5.03;;
67272;SDS011;54190;49.770;9.250;2023-02-28T05:25:02;5.20;;;3.93;;
67272;SDS011;54190;49.770;9.250;2023-02-28T05:27:30;4.20;;;3.47;;
67272;SDS011;54190;49.770;9.250;2023-02-28T05:29:56;6.33;;;3.90;;
67272;SDS011;54190;49.770;9.250;2023-02-28T05:32:22;6.43;;;4.13;;
67272;SDS011;54190;49.770;9.250;2023-02-28T05:34:47;5.63;;;4.03;;
67272;SDS011;54190;49.770;9.250;2023-02-28T05:37:13;6.50;;;4.07;;
67272;SDS011;54190;49.770;9.250;2023-02-28T05:39:40;5.37;;;3.40;;
67272;SDS011;54190;49.770;9.250;2023-02-28T05:42:06;5.77;;;3.60;;
67272;SDS011;54190;49.770;9.250;2023-02-28T05:44:32;4.40;;;3.80;;
67272;SDS011;54190;49.770;9.250;2023-02-28T05:46:58;5.07;;;3.70;;
67272;SDS011;54190;49.770;9.250;2023-02-28T05:49:24;5.60;;;3.93;;
67272;SDS011;54190;49.770;9.250;2023-02-28T05:51:49;4.97;;;3.20;;
67272;SDS011;54190;49.770;9.250;2023-02-28T05:54:15;5.70;;;3.60;;
67272;SDS011;54190;49.770;9.250;2023-02-28T05:56:41;5.30;;;3.60;;
67272;SDS011;54190;49.770;9.250;2023-02-28T05:59:10;6.70;;;4.13;;
67272;SDS011;54190;49.770;9.250;2023-02-28T06:04:07;4.40;;;3.47;;
67272;SDS011;54190;49.770;9.250;2023-02-28T06:06:35;4.60;;;3.90;;
67272;SDS011;54190;49.770;9.250;2023-02-28T06:09:02;4.80;;;3.53;;
67272;SDS011;54190;49.770;9.250;2023-02-28T06:11:29;4.17;;;3.37;;
67272;SDS011;54190;49.770;9.250;2023-02-28T06:13:58;6.27;;;3.30;;
67272;SDS011;54190;49.770;9.250;2023-02-28T06:16:26;5.00;;;3.90;;
67272;SDS011;54190;49.770;9.250;2023-02-28T06:18:52;4.40;;;3.40;;
67272;SDS011;54190;49.770;9.250;2023-02-28T06:21:20;5.67;;;3.80;;
67272;SDS011;54190;49.770;9.250;2023-02-28T06:23:46;4.30;;;3.10;;
67272;SDS011;54190;49.770;9.250;2023-02-28T06:26:12;4.20;;;3.63;;
67272;SDS011;54190;49.770;9.250;2023-02-28T06:28:38;5.87;;;3.50;;
67272;SDS011;54190;49.770;9.250;2023-02-28T06:31:07;4.50;;;3.70;;
67272;SDS011;54190;49.770;9.250;2023-02-28T06:33:34;6.10;;;3.80;;
67272;SDS011;54190;49.770;9.250;2023-02-28T06:36:01;4.67;;;3.10;;
67272;SDS011;54190;49.770;9.250;2023-02-28T06:38:26;5.60;;;3.77;;
67272;SDS011;54190;49.770;9.250;2023-02-28T06:40:54;4.10;;;2.90;;
67272;SDS011;54190;49.770;9.250;2023-02-28T06:43:21;4.87;;;3.23;;
67272;SDS011;54190;49.770;9.250;2023-02-28T06:45:47;5.30;;;3.20;;
67272;SDS011;54190;49.770;9.250;2023-02-28T06:48:12;4.10;;;3.40;;
67272;SDS011;54190;49.770;9.250;2023-02-28T06:50:38;4.50;;;3.30;;
67272;SDS011;54190;49.770;9.250;2023-02-28T06:53:04;4.93;;;3.70;;
67272;SDS011;54190;49.770;9.250;2023-02-28T06:55:30;6.13;;;3.43;;
67272;SDS011;54190;49.770;9.250;2023-02-28T06:57:56;4.63;;;3.30;;
67272;SDS011;54190;49.770;9.250;2023-02-28T07:00:22;5.87;;;3.30;;
67272;SDS011;54190;49.770;9.250;2023-02-28T07:02:48;8.40;;;4.27;;
67272;SDS011;54190;49.770;9.250;2023-02-28T07:05:14;4.13;;;3.47;;
67272;SDS011;54190;49.770;9.250;2023-02-28T07:07:39;4.33;;;3.50;;
67272;SDS011;54190;49.770;9.250;2023-02-28T07:10:09;5.37;;;3.80;;
67272;SDS011;54190;49.770;9.250;2023-02-28T07:12:36;4.87;;;3.83;;
67272;SDS011;54190;49.770;9.250;2023-02-28T07:15:03;7.83;;;4.37;;
67272;SDS011;54190;49.770;9.250;2023-02-28T07:17:29;5.17;;;3.57;;
67272;SDS011;54190;49.770;9.250;2023-02-28T07:19:55;5.17;;;3.87;;
67272;SDS011;54190;49.770;9.250;2023-02-28T07:22:21;6.17;;;3.70;;
67272;SDS011;54190;49.770;9.250;2023-02-28T07:24:46;5.40;;;3.47;;
67272;SDS011;54190;49.770;9.250;2023-02-28T07:27:12;5.23;;;3.83;;
67272;SDS011;54190;49.770;9.250;2023-02-28T07:29:51;6.60;;;3.60;;
67272;SDS011;54190;49.770;9.250;2023-02-28T07:32:17;4.37;;;3.40;;
67272;SDS011;54190;49.770;9.250;2023-02-28T07:34:43;4.57;;;3.17;;
67272;SDS011;54190;49.770;9.250;2023-02-28T07:37:09;5.87;;;3.60;;
67272;SDS011;54190;49.770;9.250;2023-02-28T07:39:35;6.43;;;3.97;;
67272;SDS011;54190;49.770;9.250;2023-02-28T07:42:05;5.73;;;3.80;;
67272;SDS011;54190;49.770;9.250;2023-02-28T07:44:32;6.57;;;3.60;;
67272;SDS011;54190;49.770;9.250;2023-02-28T07:46:57;6.10;;;4.03;;
67272;SDS011;54190;49.770;9.250;2023-02-28T07:49:23;7.10;;;3.77;;
67272;SDS011;54190;49.770;9.250;2023-02-28T07:51:49;5.67;;;3.43;;
67272;SDS011;54190;49.770;9.250;2023-02-28T07:54:14;5.23;;;3.80;;
67272;SDS011;54190;49.770;9.250;2023-02-28T07:56:40;5.83;;;4.20;;
67272;SDS011;54190;49.770;9.250;2023-02-28T07:59:05;6.13;;;4.00;;
67272;SDS011;54190;49.770;9.250;2023-02-28T08:01:31;5.90;;;4.20;;
67272;SDS011;54190;49.770;9.250;2023-02-28T08:03:57;5.40;;;3.97;;
67272;SDS011;54190;49.770;9.250;2023-02-28T08:06:23;7.30;;;3.97;;
67272;SDS011;54190;49.770;9.250;2023-02-28T08:08:50;6.37;;;4.13;;
67272;SDS011;54190;49.770;9.250;2023-02-28T08:11:16;6.10;;;3.93;;
67272;SDS011;54190;49.770;9.250;2023-02-28T08:13:43;5.70;;;3.90;;
67272;SDS011;54190;49.770;9.250;2023-02-28T08:16:09;5.70;;;3.90;;
67272;SDS011;54190;49.770;9.250;2023-02-28T08:18:36;5.63;;;4.37;;
67272;SDS011;54190;49.770;9.250;2023-02-28T08:21:06;6.97;;;4.60;;
67272;SDS011;54190;49.770;9.250;2023-02-28T08:23:35;6.83;;;4.07;;
67272;SDS011;54190;49.770;9.250;2023-02-28T08:26:01;8.50;;;4.90;;
67272;SDS011;54190;49.770;9.250;2023-02-28T08:28:27;5.93;;;4.00;;
67272;SDS011;54190;49.770;9.250;2023-02-28T08:30:53;5.13;;;4.10;;
67272;SDS011;54190;49.770;9.250;2023-02-28T08:33:19;8.03;;;5.07;;
67272;SDS011;54190;49.770;9.250;2023-02-28T08:35:45;6.47;;;4.20;;
67272;SDS011;54190;49.770;9.250;2023-02-28T08:38:10;6.93;;;4.53;;
67272;SDS011;54190;49.770;9.250;2023-02-28T08:40:36;8.27;;;5.23;;
67272;SDS011;54190;49.770;9.250;2023-02-28T08:43:02;5.27;;;3.93;;
67272;SDS011;54190;49.770;9.250;2023-02-28T08:45:27;6.40;;;4.47;;
67272;SDS011;54190;49.770;9.250;2023-02-28T08:47:55;8.70;;;4.70;;
67272;SDS011;54190;49.770;9.250;2023-02-28T08:50:21;6.80;;;4.40;;
67272;SDS011;54190;49.770;9.250;2023-02-28T08:52:47;6.07;;;3.60;;
67272;SDS011;54190;49.770;9.250;2023-02-28T08:55:13;7.67;;;4.97;;
67272;SDS011;54190;49.770;9.250;2023-02-28T08:57:38;6.13;;;4.37;;
67272;SDS011;54190;49.770;9.250;2023-02-28T09:00:04;5.20;;;4.00;;
67272;SDS011;54190;49.770;9.250;2023-02-28T09:02:30;7.50;;;5.10;;
67272;SDS011;54190;49.770;9.250;2023-02-28T09:04:56;6.60;;;4.30;;
67272;SDS011;54190;49.770;9.250;2023-02-28T09:07:23;7.83;;;4.23;;
67272;SDS011;54190;49.770;9.250;2023-02-28T09:09:50;7.10;;;4.73;;
67272;SDS011;54190;49.770;9.250;2023-02-28T09:12:19;6.87;;;4.83;;
67272;SDS011;54190;49.770;9.250;2023-02-28T09:14:52;7.10;;;4.80;;
67272;SDS011;54190;49.770;9.250;2023-02-28T09:17:18;8.17;;;4.47;;
67272;SDS011;54190;49.770;9.250;2023-02-28T09:19:44;7.37;;;4.83;;
67272;SDS011;54190;49.770;9.250;2023-02-28T09:22:12;6.90;;;4.93;;
67272;SDS011;54190;49.770;9.250;2023-02-28T09:24:38;7.50;;;4.17;;
67272;SDS011;54190;49.770;9.250;2023-02-28T09:27:03;8.40;;;5.13;;
67272;SDS011;54190;49.770;9.250;2023-02-28T09:29:30;8.50;;;5.50;;
67272;SDS011;54190;49.770;9.250;2023-02-28T09:31:56;6.27;;;4.40;;
67272;SDS011;54190;49.770;9.250;2023-02-28T09:34:24;7.13;;;4.40;;
67272;SDS011;54190;49.770;9.250;2023-02-28T09:36:50;7.10;;;4.40;;
67272;SDS011;54190;49.770;9.250;2023-02-28T09:39:19;9.07;;;5.60;;
67272;SDS011;54190;49.770;9.250;2023-02-28T09:41:47;9.10;;;5.97;;
67272;SDS011;54190;49.770;9.250;2023-02-28T09:44:31;7.07;;;5.20;;
67272;SDS011;54190;49.770;9.250;2023-02-28T09:47:38;8.90;;;5.43;;
67272;SDS011;54190;49.770;9.250;2023-02-28T09:50:44;9.20;;;5.70;;
67272;SDS011;54190;49.770;9.250;2023-02-28T09:53:02;10.27;;;5.70;;
67272;SDS011;54190;49.770;9.250;2023-02-28T09:55:53;8.10;;;5.67;;
67272;SDS011;54190;49.770;9.250;2023-02-28T09:58:34;8.27;;;5.50;;
67272;SDS011;54190;49.770;9.250;2023-02-28T10:01:09;7.80;;;5.97;;
67272;SDS011;54190;49.770;9.250;2023-02-28T10:03:58;8.70;;;5.43;;
67272;SDS011;54190;49.770;9.250;2023-02-28T10:06:34;7.70;;;5.70;;
67272;SDS011;54190;49.770;9.250;2023-02-28T10:09:11;7.13;;;5.20;;
67272;SDS011;54190;49.770;9.250;2023-02-28T10:11:51;8.63;;;5.60;;
67272;SDS011;54190;49.770;9.250;2023-02-28T10:14:22;7.27;;;4.57;;
67272;SDS011;54190;49.770;9.250;2023-02-28T10:22:17;8.10;;;5.37;;
67272;SDS011;54190;49.770;9.250;2023-02-28T10:24:53;10.10;;;4.03;;
67272;SDS011;54190;49.770;9.250;2023-02-28T10:27:26;8.40;;;5.77;;
67272;SDS011;54190;49.770;9.250;2023-02-28T10:29:58;8.63;;;6.17;;
67272;SDS011;54190;49.770;9.250;2023-02-28T10:32:32;7.00;;;5.60;;
67272;SDS011;54190;49.770;9.250;2023-02-28T10:35:21;9.00;;;5.30;;
67272;SDS011;54190;49.770;9.250;2023-02-28T10:37:59;10.80;;;6.17;;
67272;SDS011;54190;49.770;9.250;2023-02-28T10:40:34;8.63;;;6.60;;
67272;SDS011;54190;49.770;9.250;2023-02-28T10:43:21;10.80;;;7.03;;
67272;SDS011;54190;49.770;9.250;2023-02-28T10:46:21;9.10;;;6.17;;
67272;SDS011;54190;49.770;9.250;2023-02-28T10:49:32;7.47;;;6.13;;
67272;SDS011;54190;49.770;9.250;2023-02-28T10:51:46;8.70;;;6.40;;
67272;SDS011;54190;49.770;9.250;2023-02-28T10:54:33;7.70;;;5.60;;
67272;SDS011;54190;49.770;9.250;2023-02-28T10:57:08;10.27;;;6.47;;
67272;SDS011;54190;49.770;9.250;2023-02-28T10:59:43;6.70;;;4.90;;
67272;SDS011;54190;49.770;9.250;2023-02-28T11:08:10;11.03;;;6.37;;
67272;SDS011;54190;49.770;9.250;2023-02-28T11:10:39;10.13;;;5.77;;
67272;SDS011;54190;49.770;9.250;2023-02-28T11:13:17;8.90;;;5.67;;
67272;SDS011;54190;49.770;9.250;2023-02-28T11:15:51;9.27;;;6.23;;
67272;SDS011;54190;49.770;9.250;2023-02-28T11:20:47;10.03;;;6.53;;
67272;SDS011;54190;49.770;9.250;2023-02-28T11:23:17;9.13;;;6.13;;
67272;SDS011;54190;49.770;9.250;2023-02-28T11:25:49;7.23;;;5.50;;
67272;SDS011;54190;49.770;9.250;2023-02-28T11:28:29;9.13;;;6.33;;
67272;SDS011;54190;49.770;9.250;2023-02-28T11:33:45;8.60;;;6.20;;
67272;SDS011;54190;49.770;9.250;2023-02-28T11:38:47;8.90;;;6.07;;
67272;SDS011;54190;49.770;9.250;2023-02-28T11:44:34;10.77;;;7.73;;
67272;SDS011;54190;49.770;9.250;2023-02-28T11:47:17;10.20;;;6.90;;
67272;SDS011;54190;49.770;9.250;2023-02-28T11:52:48;9.10;;;6.60;;
67272;SDS011;54190;49.770;9.250;2023-02-28T11:55:32;11.63;;;7.17;;
67272;SDS011;54190;49.770;9.250;2023-02-28T12:00:56;11.37;;;7.67;;
67272;SDS011;54190;49.770;9.250;2023-02-28T12:06:28;13.50;;;7.23;;
67272;SDS011;54190;49.770;9.250;2023-02-28T12:09:08;9.47;;;6.03;;
67272;SDS011;54190;49.770;9.250;2023-02-28T12:15:16;9.70;;;6.60;;
67272;SDS011;54190;49.770;9.250;2023-02-28T12:23:47;10.80;;;7.30;;
67272;SDS011;54190;49.770;9.250;2023-02-28T12:26:38;8.43;;;6.30;;
67272;SDS011;54190;49.770;9.250;2023-02-28T12:29:28;7.80;;;5.73;;
67272;SDS011;54190;49.770;9.250;2023-02-28T12:31:59;11.23;;;7.10;;
67272;SDS011;54190;49.770;9.250;2023-02-28T12:34:32;10.60;;;7.07;;
67272;SDS011;54190;49.770;9.250;2023-02-28T12:37:13;9.60;;;6.60;;
67272;SDS011;54190;49.770;9.250;2023-02-28T12:39:48;9.73;;;7.10;;
67272;SDS011;54190;49.770;9.250;2023-02-28T12:44:58;9.20;;;6.37;;
67272;SDS011;54190;49.770;9.250;2023-02-28T12:47:26;9.03;;;6.30;;
67272;SDS011;54190;49.770;9.250;2023-02-28T12:49:54;9.30;;;6.60;;
67272;SDS011;54190;49.770;9.250;2023-02-28T12:52:27;8.63;;;5.63;;
67272;SDS011;54190;49.770;9.250;2023-02-28T12:55:19;9.90;;;6.70;;
67272;SDS011;54190;49.770;9.250;2023-02-28T13:01:04;10.33;;;6.97;;
67272;SDS011;54190;49.770;9.250;2023-02-28T13:14:20;10.60;;;8.00;;
67272;SDS011;54190;49.770;9.250;2023-02-28T13:19:36;11.93;;;7.87;;
67272;SDS011;54190;49.770;9.250;2023-02-28T13:22:04;12.63;;;8.20;;
67272;SDS011;54190;49.770;9.250;2023-02-28T13:34:35;11.87;;;8.10;;
67272;SDS011;54190;49.770;9.250;2023-02-28T13:47:33;10.70;;;7.83;;
67272;SDS011;54190;49.770;9.250;2023-02-28T13:50:38;9.37;;;7.43;;
67272;SDS011;54190;49.770;9.250;2023-02-28T13:53:19;11.77;;;7.27;;
67272;SDS011;54190;49.770;9.250;2023-02-28T13:55:52;10.97;;;7.90;;
67272;SDS011;54190;49.770;9.250;2023-02-28T14:01:11;13.10;;;7.50;;
67272;SDS011;54190;49.770;9.250;2023-02-28T14:07:02;9.63;;;6.70;;
67272;SDS011;54190;49.770;9.250;2023-02-28T14:09:30;9.10;;;7.00;;
67272;SDS011;54190;49.770;9.250;2023-02-28T14:18:05;9.13;;;6.97;;
67272;SDS011;54190;49.770;9.250;2023-02-28T14:21:11;9.67;;;6.77;;
67272;SDS011;54190;49.770;9.250;2023-02-28T14:26:34;12.17;;;7.33;;
67272;SDS011;54190;49.770;9.250;2023-02-28T14:32:02;10.20;;;7.37;;
67272;SDS011;54190;49.770;9.250;2023-02-28T14:34:43;10.30;;;6.90;;
67272;SDS011;54190;49.770;9.250;2023-02-28T14:37:19;12.53;;;7.10;;
67272;SDS011;54190;49.770;9.250;2023-02-28T14:39:51;11.00;;;6.30;;
67272;SDS011;54190;49.770;9.250;2023-02-28T14:42:34;10.17;;;7.13;;
67272;SDS011;54190;49.770;9.250;2023-02-28T14:45:03;8.70;;;6.87;;
67272;SDS011;54190;49.770;9.250;2023-02-28T14:47:33;10.50;;;7.23;;
67272;SDS011;54190;49.770;9.250;2023-02-28T14:50:00;9.00;;;6.93;;
67272;SDS011;54190;49.770;9.250;2023-02-28T14:52:31;10.70;;;6.70;;
67272;SDS011;54190;49.770;9.250;2023-02-28T14:55:01;11.10;;;7.80;;
67272;SDS011;54190;49.770;9.250;2023-02-28T14:57:31;11.30;;;7.40;;
67272;SDS011;54190;49.770;9.250;2023-02-28T15:00:11;11.97;;;7.70;;
67272;SDS011;54190;49.770;9.250;2023-02-28T15:02:41;11.43;;;7.77;;
67272;SDS011;54190;49.770;9.250;2023-02-28T15:07:42;9.80;;;7.40;;
67272;SDS011;54190;49.770;9.250;2023-02-28T15:15:25;11.50;;;7.23;;
67272;SDS011;54190;49.770;9.250;2023-02-28T15:18:00;9.50;;;6.90;;
67272;SDS011;54190;49.770;9.250;2023-02-28T15:20:30;12.30;;;7.57;;
67272;SDS011;54190;49.770;9.250;2023-02-28T15:22:57;10.67;;;7.67;;
67272;SDS011;54190;49.770;9.250;2023-02-28T15:25:23;11.47;;;7.00;;
67272;SDS011;54190;49.770;9.250;2023-02-28T15:27:52;11.50;;;7.13;;
67272;SDS011;54190;49.770;9.250;2023-02-28T15:30:21;13.87;;;7.73;;
67272;SDS011;54190;49.770;9.250;2023-02-28T15:35:29;9.60;;;6.23;;
67272;SDS011;54190;49.770;9.250;2023-02-28T15:40:30;9.43;;;7.37;;
67272;SDS011;54190;49.770;9.250;2023-02-28T15:43:06;10.80;;;7.30;;
67272;SDS011;54190;49.770;9.250;2023-02-28T15:45:37;10.90;;;6.70;;
67272;SDS011;54190;49.770;9.250;2023-02-28T15:50:53;9.43;;;7.20;;
67272;SDS011;54190;49.770;9.250;2023-02-28T15:53:39;8.07;;;6.20;;
67272;SDS011;54190;49.770;9.250;2023-02-28T15:56:33;10.27;;;7.63;;
67272;SDS011;54190;49.770;9.250;2023-02-28T15:59:17;9.40;;;7.33;;
67272;SDS011;54190;49.770;9.250;2023-02-28T16:01:45;9.97;;;7.07;;
67272;SDS011;54190;49.770;9.250;2023-02-28T16:04:18;10.37;;;7.20;;
67272;SDS011;54190;49.770;9.250;2023-02-28T16:09:23;8.60;;;6.77;;
67272;SDS011;54190;49.770;9.250;2023-02-28T16:11:49;10.13;;;7.13;;
67272;SDS011;54190;49.770;9.250;2023-02-28T16:14:21;9.27;;;6.60;;
67272;SDS011;54190;49.770;9.250;2023-02-28T16:16:50;11.00;;;7.40;;
67272;SDS011;54190;49.770;9.250;2023-02-28T16:19:18;9.20;;;6.40;;
67272;SDS011;54190;49.770;9.250;2023-02-28T16:21:44;11.13;;;7.37;;
67272;SDS011;54190;49.770;9.250;2023-02-28T16:24:10;10.00;;;7.27;;
67272;SDS011;54190;49.770;9.250;2023-02-28T16:26:36;8.93;;;7.07;;
67272;SDS011;54190;49.770;9.250;2023-02-28T16:29:05;13.50;;;7.93;;
67272;SDS011;54190;49.770;9.250;2023-02-28T16:31:35;9.10;;;6.67;;
67272;SDS011;54190;49.770;9.250;2023-02-28T16:34:03;11.60;;;6.87;;
67272;SDS011;54190;49.770;9.250;2023-02-28T16:36:32;10.43;;;7.40;;
67272;SDS011;54190;49.770;9.250;2023-02-28T16:38:57;12.50;;;7.93;;
67272;SDS011;54190;49.770;9.250;2023-02-28T16:41:24;9.20;;;6.60;;
67272;SDS011;54190;49.770;9.250;2023-02-28T16:43:52;11.87;;;7.03;;
67272;SDS011;54190;49.770;9.250;2023-02-28T16:46:23;10.20;;;7.00;;
67272;SDS011;54190;49.770;9.250;2023-02-28T16:48:52;10.57;;;7.00;;
67272;SDS011;54190;49.770;9.250;2023-02-28T16:51:18;9.13;;;6.87;;
67272;SDS011;54190;49.770;9.250;2023-02-28T16:53:44;9.40;;;7.27;;
67272;SDS011;54190;49.770;9.250;2023-02-28T16:56:17;10.73;;;6.80;;
67272;SDS011;54190;49.770;9.250;2023-02-28T16:58:45;10.33;;;6.40;;
67272;SDS011;54190;49.770;9.250;2023-02-28T17:01:11;8.93;;;6.63;;
67272;SDS011;54190;49.770;9.250;2023-02-28T17:03:37;10.30;;;6.23;;
67272;SDS011;54190;49.770;9.250;2023-02-28T17:06:04;10.23;;;6.20;;
67272;SDS011;54190;49.770;9.250;2023-02-28T17:08:30;14.37;;;9.33;;
67272;SDS011;54190;49.770;9.250;2023-02-28T17:10:57;14.70;;;8.63;;
67272;SDS011;54190;49.770;9.250;2023-02-28T17:13:24;15.53;;;7.87;;
67272;SDS011;54190;49.770;9.250;2023-02-28T17:15:49;12.57;;;8.37;;
67272;SDS011;54190;49.770;9.250;2023-02-28T17:18:16;10.23;;;7.10;;
67272;SDS011;54190;49.770;9.250;2023-02-28T17:20:44;10.00;;;6.80;;
67272;SDS011;54190;49.770;9.250;2023-02-28T17:23:10;10.03;;;6.73;;
67272;SDS011;54190;49.770;9.250;2023-02-28T17:25:36;10.90;;;7.40;;